createdAt,value
2023-03-04T00:00:31.602Z,14.97
2023-03-04T00:02:58.758Z,15.67
2023-03-04T00:05:25.856Z,14.67
2023-03-04T00:07:53.107Z,14.10
2023-03-04T00:10:20.328Z,14.67
2023-03-04T00:12:47.575Z,14.50
2023-03-04T00:15:15.443Z,14.87
2023-03-04T00:17:42.701Z,15.23
2023-03-04T00:20:10.669Z,14.43
2023-03-04T00:22:38.155Z,14.70
2023-03-04T00:25:05.933Z,15.63
2023-03-04T00:27:33.106Z,14.70
2023-03-04T00:30:00.242Z,15.77
2023-03-04T00:32:27.411Z,15.30
2023-03-04T00:34:54.537Z,15.10
2023-03-04T00:37:22.043Z,15.07
2023-03-04T00:39:49.274Z,15.57
2023-03-04T00:42:16.405Z,15.43
2023-03-04T00:44:43.610Z,14.13
2023-03-04T00:47:10.838Z,15.97
2023-03-04T00:49:38.189Z,15.47
2023-03-04T00:52:05.415Z,15.80
2023-03-04T00:54:32.680Z,14.60
2023-03-04T00:56:59.884Z,15.63
2023-03-04T00:59:27.043Z,15.93
2023-03-04T01:01:54.249Z,15.83
2023-03-04T01:04:21.379Z,15.43
2023-03-04T01:06:48.603Z,15.03
2023-03-04T01:09:16.080Z,16.03
2023-03-04T01:11:43.309Z,15.67
2023-03-04T01:14:10.677Z,16.20
2023-03-04T01:16:37.827Z,17.17
2023-03-04T01:19:05.033Z,15.73
2023-03-04T01:21:32.069Z,15.60
2023-03-04T01:23:59.130Z,16.90
2023-03-04T01:26:26.277Z,16.67
2023-03-04T01:28:53.457Z,16.43
2023-03-04T01:31:20.727Z,15.77
2023-03-04T01:33:47.860Z,14.37
2023-03-04T01:36:14.926Z,16.83
2023-03-04T01:38:42.102Z,16.47
2023-03-04T01:41:10.196Z,16.57
2023-03-04T01:43:38.448Z,15.80
2023-03-04T01:46:07.211Z,15.43
2023-03-04T01:48:38.461Z,16.50
2023-03-04T01:51:11.296Z,15.87
2023-03-04T01:53:38.702Z,15.73
2023-03-04T01:56:37.585Z,14.83
2023-03-04T01:59:18.831Z,16.47
2023-03-04T02:01:53.046Z,17.50
2023-03-04T02:04:28.735Z,15.67
2023-03-04T02:06:57.532Z,15.57
2023-03-04T02:09:25.080Z,16.13
2023-03-04T02:11:53.595Z,15.67
2023-03-04T02:23:33.524Z,16.17
2023-03-04T02:26:29.351Z,14.70
2023-03-04T02:37:47.517Z,15.60
2023-03-04T02:55:47.784Z,15.87
2023-03-04T02:58:15.318Z,14.90
2023-03-04T03:18:11.346Z,15.43
2023-03-04T03:20:38.527Z,16.70
2023-03-04T04:29:51.154Z,15.83
2023-03-04T04:32:18.268Z,14.93
2023-03-04T04:34:45.392Z,15.83
2023-03-04T04:45:59.956Z,15.70
2023-03-04T04:51:21.735Z,15.37
2023-03-04T05:00:10.809Z,14.37
2023-03-04T05:02:38.908Z,13.43
2023-03-04T05:31:20.321Z,13.80
2023-03-04T05:36:42.242Z,13.40
2023-03-04T05:42:04.252Z,12.93
2023-03-04T06:02:40.033Z,13.10
2023-03-04T06:05:09.056Z,13.40
2023-03-04T06:07:36.601Z,12.43
2023-03-04T06:10:05.321Z,12.60
2023-03-04T06:12:32.761Z,12.43
2023-03-04T06:14:59.914Z,12.07
2023-03-04T06:17:27.056Z,12.23
2023-03-04T06:19:54.124Z,12.20
2023-03-04T06:22:21.382Z,13.33
2023-03-04T06:24:48.575Z,13.17
2023-03-04T06:27:16.790Z,12.90
2023-03-04T06:29:43.897Z,12.43
2023-03-04T06:32:11.317Z,11.57
2023-03-04T06:34:38.589Z,12.30
2023-03-04T06:37:05.807Z,12.37
2023-03-04T06:39:33.148Z,11.83
2023-03-04T06:42:00.552Z,12.07
2023-03-04T06:44:27.728Z,12.83
2023-03-04T06:46:54.906Z,13.83
2023-03-04T06:49:22.102Z,13.23
2023-03-04T06:51:49.315Z,13.57
2023-03-04T06:54:16.470Z,12.23
2023-03-04T06:56:43.519Z,12.80
2023-03-04T06:59:10.918Z,13.43
2023-03-04T07:01:38.285Z,13.23
2023-03-04T07:04:05.709Z,12.30
2023-03-04T07:06:33.397Z,12.93
2023-03-04T07:09:00.740Z,13.53
2023-03-04T07:11:28.116Z,12.73
2023-03-04T07:13:55.581Z,12.13
2023-03-04T07:16:24.310Z,12.67
2023-03-04T07:18:51.572Z,13.07
2023-03-04T07:21:19.190Z,13.83
2023-03-04T07:23:46.595Z,14.03
2023-03-04T07:26:14.043Z,12.37
2023-03-04T07:28:42.893Z,12.57
2023-03-04T07:31:25.563Z,12.47
2023-03-04T07:33:52.706Z,13.60
2023-03-04T07:36:20.193Z,12.20
2023-03-04T08:05:07.795Z,12.07
2023-03-04T08:08:06.936Z,12.43
2023-03-04T08:10:34.355Z,10.97
2023-03-04T08:13:01.621Z,11.37
2023-03-04T08:21:20.396Z,12.07
2023-03-04T08:23:48.275Z,11.97
2023-03-04T08:29:32.132Z,11.80
2023-03-04T08:37:50.846Z,10.63
2023-03-04T08:40:18.108Z,11.37
2023-03-04T08:42:45.220Z,10.43
2023-03-04T08:45:12.567Z,10.70
2023-03-04T08:47:40.946Z,10.17
2023-03-04T08:50:09.120Z,10.10
2023-03-04T08:52:36.740Z,10.50
2023-03-04T08:55:04.147Z,10.60
2023-03-04T08:57:31.286Z,9.60
2023-03-04T08:59:58.347Z,11.53
2023-03-04T09:02:25.402Z,10.17
2023-03-04T09:04:52.424Z,11.10
2023-03-04T09:07:19.497Z,10.40
2023-03-04T09:09:46.693Z,10.80
2023-03-04T09:12:13.730Z,10.07
2023-03-04T09:14:40.831Z,9.43
2023-03-04T09:17:09.337Z,9.50
2023-03-04T09:19:37.004Z,11.70
2023-03-04T09:22:04.090Z,11.00
2023-03-04T09:24:31.154Z,11.37
2023-03-04T09:26:58.244Z,11.83
2023-03-04T09:29:25.480Z,12.10
2023-03-04T09:31:52.569Z,10.97
2023-03-04T09:34:19.580Z,10.57
2023-03-04T09:36:46.891Z,10.80
2023-03-04T09:39:14.222Z,10.00
2023-03-04T09:41:46.926Z,9.60
2023-03-04T09:44:37.269Z,10.03
2023-03-04T09:47:11.574Z,10.30
2023-03-04T09:49:43.584Z,9.37
2023-03-04T09:52:15.321Z,9.70
2023-03-04T09:55:16.542Z,9.93
2023-03-04T09:58:07.434Z,9.40
2023-03-04T10:00:46.197Z,9.93
2023-03-04T10:03:39.262Z,9.93
2023-03-04T10:06:11.784Z,10.20
2023-03-04T10:09:11.403Z,10.50
2023-03-04T10:11:50.227Z,9.80
2023-03-04T10:14:23.028Z,9.17
2023-03-04T10:17:07.426Z,9.83
2023-03-04T10:20:21.293Z,9.27
2023-03-04T10:22:56.577Z,9.57
2023-03-04T10:25:26.624Z,9.83
2023-03-04T10:28:04.862Z,9.33
2023-03-04T10:30:43.830Z,9.10
2023-03-04T10:33:19.956Z,9.53
2023-03-04T10:36:19.538Z,9.03
2023-03-04T10:38:46.637Z,9.93
2023-03-04T10:41:22.692Z,9.90
2023-03-04T10:44:11.450Z,9.30
2023-03-04T10:46:47.599Z,8.80
2023-03-04T10:49:18.329Z,8.70
2023-03-04T10:52:24.157Z,9.47
2023-03-04T10:55:01.098Z,9.07
2023-03-04T10:57:39.500Z,9.13
2023-03-04T11:00:41.742Z,8.83
2023-03-04T11:03:36.101Z,9.03
2023-03-04T11:06:22.975Z,8.93
2023-03-04T11:08:59.811Z,9.13
2023-03-04T11:11:44.870Z,9.10
2023-03-04T11:14:44.422Z,10.13
2023-03-04T11:17:40.669Z,10.00
2023-03-04T11:20:23.090Z,9.37
2023-03-04T11:22:50.847Z,8.60
2023-03-04T11:25:40.894Z,9.17
2023-03-04T11:28:33.688Z,9.57
2023-03-04T11:31:30.617Z,8.37
2023-03-04T11:34:07.017Z,9.53
2023-03-04T11:37:06.245Z,8.37
2023-03-04T11:39:34.925Z,7.90
2023-03-04T11:42:38.783Z,8.33
2023-03-04T11:45:28.493Z,8.63
2023-03-04T11:48:26.555Z,8.37
2023-03-04T11:51:02.107Z,7.83
2023-03-04T11:53:40.728Z,8.13
2023-03-04T11:56:39.722Z,8.13
2023-03-04T11:59:40.924Z,8.60
2023-03-04T12:02:39.683Z,8.53
2023-03-04T12:05:37.148Z,8.63
2023-03-04T12:08:11.780Z,8.03
2023-03-04T12:11:02.962Z,8.57
2023-03-04T12:13:50.935Z,8.37
2023-03-04T12:16:42.028Z,6.93
2023-03-04T12:19:20.832Z,8.20
2023-03-04T12:22:03.709Z,8.23
2023-03-04T12:25:04.167Z,7.93
2023-03-04T12:27:55.802Z,8.17
2023-03-04T12:30:57.744Z,7.93
2023-03-04T12:34:21.190Z,7.90
2023-03-04T12:37:08.084Z,7.30
2023-03-04T12:40:13.462Z,8.60
2023-03-04T12:43:04.646Z,8.00
2023-03-04T12:46:18.126Z,8.83
2023-03-04T12:49:30.346Z,7.67
2023-03-04T12:52:03.634Z,7.43
2023-03-04T12:54:43.589Z,6.47
2023-03-04T12:57:22.130Z,6.87
2023-03-04T13:00:33.060Z,6.47
2023-03-04T13:03:29.528Z,5.87
2023-03-04T13:06:09.955Z,6.20
2023-03-04T13:09:21.052Z,7.83
2023-03-04T13:12:12.919Z,6.53
2023-03-04T13:14:40.046Z,6.13
2023-03-04T13:17:55.908Z,6.37
2023-03-04T13:20:41.229Z,6.17
2023-03-04T13:23:13.948Z,5.90
2023-03-04T13:25:55.906Z,6.13
2023-03-04T13:28:27.132Z,5.23
2023-03-04T13:30:57.189Z,5.70
2023-03-04T13:33:24.155Z,5.60
2023-03-04T13:36:00.078Z,4.80
2023-03-04T13:38:37.168Z,4.30
2023-03-04T13:41:24.978Z,3.13
2023-03-04T13:44:06.147Z,2.53
2023-03-04T13:46:43.842Z,2.40
2023-03-04T13:49:24.718Z,2.40
2023-03-04T13:51:52.449Z,1.87
2023-03-04T13:54:32.387Z,2.23
2023-03-04T13:57:02.066Z,1.93
2023-03-04T13:59:57.144Z,2.20
2023-03-04T14:02:26.189Z,4.27
2023-03-04T14:05:02.105Z,3.53
2023-03-04T14:07:37.612Z,3.20
2023-03-04T14:10:14.992Z,2.77
2023-03-04T14:13:04.243Z,2.73
2023-03-04T14:15:33.516Z,2.53
2023-03-04T14:18:04.840Z,2.57
2023-03-04T14:20:49.462Z,2.60
2023-03-04T14:23:45.902Z,2.90
2023-03-04T14:26:18.683Z,2.60
2023-03-04T14:28:52.274Z,2.67
2023-03-04T14:31:24.290Z,2.47
2023-03-04T14:33:59.865Z,2.90
2023-03-04T14:36:28.291Z,2.63
2023-03-04T14:39:05.935Z,2.63
2023-03-04T14:41:43.232Z,3.10
2023-03-04T14:44:38.087Z,2.97
2023-03-04T14:47:40.806Z,2.90
2023-03-04T14:50:17.224Z,3.17
2023-03-04T14:53:24.508Z,3.67
2023-03-04T14:56:08.081Z,2.20
2023-03-04T14:58:52.074Z,2.93
2023-03-04T15:01:23.735Z,2.63
2023-03-04T15:04:13.346Z,2.40
2023-03-04T15:06:51.485Z,2.20
2023-03-04T15:09:26.318Z,2.13
2023-03-04T15:12:03.998Z,1.97
2023-03-04T15:14:50.591Z,2.10
2023-03-04T15:17:39.505Z,1.77
2023-03-04T15:20:06.461Z,1.77
2023-03-04T15:22:49.909Z,1.40
2023-03-04T15:25:20.395Z,1.63
2023-03-04T15:27:49.501Z,1.57
2023-03-04T15:30:29.660Z,1.30
2023-03-04T15:33:00.096Z,1.40
2023-03-04T15:35:33.446Z,1.30
2023-03-04T15:38:02.316Z,1.90
2023-03-04T15:40:39.565Z,1.83
2023-03-04T15:43:10.095Z,1.93
2023-03-04T15:45:39.217Z,2.00
2023-03-04T15:48:10.909Z,2.07
2023-03-04T15:51:00.685Z,1.70
2023-03-04T15:53:38.169Z,1.90
2023-03-04T15:56:09.236Z,2.10
2023-03-04T15:58:36.405Z,2.23
2023-03-04T16:01:03.724Z,2.57
2023-03-04T16:03:31.212Z,2.17
2023-03-04T16:05:59.472Z,2.77
2023-03-04T16:08:26.671Z,1.87
2023-03-04T16:10:54.800Z,2.10
2023-03-04T16:13:24.205Z,2.23
2023-03-04T16:15:51.579Z,2.60
2023-03-04T16:18:18.770Z,2.60
2023-03-04T16:20:48.947Z,2.33
2023-03-04T16:23:23.944Z,2.30
2023-03-04T16:25:56.227Z,2.03
2023-03-04T16:28:23.771Z,1.60
2023-03-04T16:30:50.970Z,1.60
2023-03-04T16:33:18.078Z,1.40
2023-03-04T16:35:46.592Z,1.50
2023-03-04T16:38:33.273Z,1.70
2023-03-04T16:41:04.575Z,2.03
2023-03-04T16:43:32.086Z,2.07
2023-03-04T16:45:59.183Z,1.60
2023-03-04T16:48:26.244Z,1.37
2023-03-04T16:50:53.430Z,1.40
2023-03-04T16:53:39.890Z,1.63
2023-03-04T16:56:13.985Z,2.10
2023-03-04T16:58:42.587Z,1.97
2023-03-04T17:01:28.679Z,2.00
2023-03-04T17:03:56.791Z,1.73
2023-03-04T17:06:24.645Z,2.20
2023-03-04T17:08:51.964Z,1.87
2023-03-04T17:11:22.554Z,1.97
2023-03-04T17:13:50.364Z,2.23
2023-03-04T17:16:18.306Z,3.00
2023-03-04T17:18:46.101Z,2.83
2023-03-04T17:21:25.970Z,2.30
2023-03-04T17:23:54.258Z,2.27
2023-03-04T17:26:22.718Z,2.40
2023-03-04T17:28:51.709Z,1.87
2023-03-04T17:31:21.005Z,1.90
2023-03-04T17:33:48.943Z,2.20
2023-03-04T17:36:18.195Z,2.77
2023-03-04T17:38:45.600Z,2.70
2023-03-04T17:41:17.557Z,2.53
2023-03-04T17:43:51.123Z,2.37
2023-03-04T17:46:25.879Z,2.57
2023-03-04T17:48:59.284Z,2.63
2023-03-04T17:51:36.475Z,2.60
2023-03-04T17:54:05.676Z,2.73
2023-03-04T17:56:34.501Z,3.10
2023-03-04T17:59:05.729Z,3.13
2023-03-04T18:01:32.775Z,3.90
2023-03-04T18:04:00.130Z,3.93
2023-03-04T18:06:27.266Z,4.03
2023-03-04T18:08:54.974Z,4.93
2023-03-04T18:11:24.997Z,4.07
2023-03-04T18:13:54.278Z,5.50
2023-03-04T18:16:27.166Z,5.80
2023-03-04T18:18:57.896Z,5.37
2023-03-04T18:21:27.140Z,4.47
2023-03-04T18:23:54.557Z,4.80
2023-03-04T18:26:25.364Z,4.20
2023-03-04T18:28:54.382Z,3.93
2023-03-04T18:31:31.081Z,3.73
2023-03-04T18:34:01.399Z,3.20
2023-03-04T18:36:29.647Z,3.60
2023-03-04T18:38:59.394Z,3.93
2023-03-04T18:41:27.840Z,3.80
2023-03-04T18:43:55.660Z,3.97
2023-03-04T18:46:53.604Z,3.63
2023-03-04T18:49:21.730Z,3.73
2023-03-04T18:51:48.882Z,4.33
2023-03-04T18:54:15.909Z,4.20
2023-03-04T18:57:02.142Z,3.80
2023-03-04T18:59:42.800Z,3.97
2023-03-04T19:02:16.988Z,3.63
2023-03-04T19:04:44.166Z,2.83
2023-03-04T19:07:11.179Z,2.33
2023-03-04T19:09:38.273Z,2.10
2023-03-04T19:12:06.658Z,2.43
2023-03-04T19:14:33.693Z,4.00
2023-03-04T19:17:00.700Z,10.83
2023-03-04T19:19:27.979Z,4.97
2023-03-04T19:21:55.130Z,6.00
2023-03-04T19:24:22.169Z,4.73
2023-03-04T19:26:49.324Z,3.97
2023-03-04T19:29:17.185Z,3.37
2023-03-04T19:31:44.171Z,2.93
2023-03-04T19:34:11.514Z,2.87
2023-03-04T19:36:39.430Z,2.80
2023-03-04T19:39:08.077Z,2.13
2023-03-04T19:41:35.222Z,2.43
2023-03-04T19:44:03.064Z,2.60
2023-03-04T19:46:31.467Z,2.47
2023-03-04T19:48:58.928Z,1.80
2023-03-04T19:51:27.033Z,2.20
2023-03-04T19:53:54.875Z,2.23
2023-03-04T19:56:23.972Z,2.37
2023-03-04T19:58:55.008Z,2.50
2023-03-04T20:01:34.027Z,2.37
2023-03-04T20:04:21.473Z,1.87
2023-03-04T20:06:51.079Z,1.97
2023-03-04T20:09:19.537Z,2.47
2023-03-04T20:11:57.656Z,2.20
2023-03-04T20:14:27.650Z,2.37
2023-03-04T20:16:58.849Z,2.37
2023-03-04T20:19:26.174Z,1.97
2023-03-04T20:21:53.380Z,2.10
2023-03-04T20:24:23.402Z,2.17
2023-03-04T20:26:51.200Z,1.93
2023-03-04T20:29:18.821Z,2.33
2023-03-04T20:31:46.648Z,2.33
2023-03-04T20:34:14.542Z,2.33
2023-03-04T20:36:41.901Z,2.63
2023-03-04T20:39:27.505Z,3.03
2023-03-04T20:41:59.365Z,3.40
2023-03-04T20:44:27.177Z,3.30
2023-03-04T20:46:54.489Z,3.50
2023-03-04T20:49:26.971Z,3.47
2023-03-04T20:52:00.762Z,4.40
2023-03-04T20:54:27.877Z,4.20
2023-03-04T20:56:55.041Z,4.30
2023-03-04T20:59:22.268Z,3.87
2023-03-04T21:01:49.767Z,4.40
2023-03-04T21:04:18.258Z,5.10
2023-03-04T21:06:47.537Z,4.73
2023-03-04T21:09:18.340Z,7.53
2023-03-04T21:11:45.934Z,8.97
2023-03-04T21:14:22.059Z,7.53
2023-03-04T21:16:52.174Z,7.50
2023-03-04T21:19:30.880Z,5.70
2023-03-04T21:22:00.545Z,4.93
2023-03-04T21:24:32.146Z,4.87
2023-03-04T21:27:01.625Z,5.27
2023-03-04T21:29:29.501Z,4.87
2023-03-04T21:32:22.439Z,4.43
2023-03-04T21:34:52.462Z,4.93
2023-03-04T21:37:21.969Z,4.43
2023-03-04T21:39:49.209Z,5.20
2023-03-04T21:42:16.401Z,5.37
2023-03-04T21:44:51.630Z,4.60
2023-03-04T21:47:21.143Z,4.97
2023-03-04T21:49:48.541Z,4.40
2023-03-04T21:52:17.168Z,4.40
2023-03-04T21:54:44.432Z,4.13
2023-03-04T21:57:12.095Z,4.53
2023-03-04T21:59:40.293Z,4.47
2023-03-04T22:02:14.321Z,4.10
2023-03-04T22:04:41.806Z,4.83
2023-03-04T22:07:10.283Z,6.43
2023-03-04T22:09:37.983Z,4.97
2023-03-04T22:12:05.671Z,5.20
2023-03-04T22:14:32.839Z,5.00
2023-03-04T22:17:00.086Z,5.20
2023-03-04T22:19:32.347Z,4.80
2023-03-04T22:21:59.962Z,4.37
2023-03-04T22:24:27.647Z,3.80
2023-03-04T22:26:56.908Z,4.13
2023-03-04T22:29:24.081Z,3.30
2023-03-04T22:31:51.246Z,3.57
2023-03-04T22:34:18.702Z,3.47
2023-03-04T22:36:47.422Z,4.03
2023-03-04T22:39:23.087Z,3.77
2023-03-04T22:41:50.439Z,2.90
2023-03-04T22:44:17.984Z,3.10
2023-03-04T22:46:45.123Z,4.23
2023-03-04T22:49:14.716Z,3.33
2023-03-04T22:51:44.405Z,4.03
2023-03-04T22:54:14.901Z,3.50
2023-03-04T22:56:42.416Z,3.90
2023-03-04T22:59:09.861Z,3.27
2023-03-04T23:01:37.663Z,3.67
2023-03-04T23:04:05.007Z,3.93
2023-03-04T23:06:32.461Z,3.53
2023-03-04T23:09:00.503Z,3.53
2023-03-04T23:11:35.476Z,4.00
2023-03-04T23:14:06.618Z,3.40
2023-03-04T23:16:42.438Z,4.20
2023-03-04T23:19:13.004Z,5.30
2023-03-04T23:21:40.266Z,3.60
2023-03-04T23:24:09.191Z,3.83
2023-03-04T23:26:39.447Z,3.00
2023-03-04T23:29:10.001Z,3.90
2023-03-04T23:31:37.143Z,3.50
2023-03-04T23:34:05.221Z,3.07
2023-03-04T23:36:36.254Z,2.83
2023-03-04T23:39:05.925Z,2.73
2023-03-04T23:41:34.665Z,2.67
2023-03-04T23:44:02.415Z,3.00
2023-03-04T23:49:28.037Z,3.20
2023-03-04T23:57:46.756Z,2.83
